الصفحة الرئيسية
METAR-TAF:

METAR-TAF

مطار :

Meierwik

غلوكسبورغ, ألمانيا

دائرة عرض: 54-50N, خط طول: 009-30E, ارتفاع: 27 متر

مراقبة الطقس الحالي

تاريخ ووقت الإصدار 26 دقيقة قبل الساعة 02:20UTC
ريح 13 عقدة من الجنوب الغربي تتزايد حتى 25 عقدة
درجة الحرارة 15°درجة مئوية
الرطوبة 94%
ضغط 1008 hPa
الرؤية: 2100 متر

METAR: ETGG 040220Z AUTO 23013G25KT 2100 // ////// 15/14 Q1008 ///

زمن: 04:46 (02:46 UTC)


TAF: مفقودة

أرصاد الطقس والتوقعات من أكثر من 4000 مطار (تقارير الطقس للمطار METAR والتنبؤ بالطقس بالمطارTAF).

المحطات المتاحة هي النقط الصفراء والحمراء على الخريطة.

حرك المؤشر فوق النقطة لمعرفة اسم المحطة.

ثم انقر لمعرفة أرصاد وتوقعات الطقس.

لتغيير الخارطة: اضغط على الأزرار الخضراء مع رمز الصليب الأسود للتكبير. على الزر الأخضر مع شرطة للتصغير، أو على الأسهم الخضراء للخرائط المجاورة.


METAR-TAF: